sensor_id;sensor_type;location;lat;lon;timestamp;P1;durP1;ratioP1;P2;durP2;ratioP2
28762;SDS011;15918;51.270;6.522;2022-12-13T00:02:18;33.90;;;27.88;;
28762;SDS011;15918;51.270;6.522;2022-12-13T00:04:43;33.15;;;28.60;;
28762;SDS011;15918;51.270;6.522;2022-12-13T00:07:09;33.58;;;29.88;;
28762;SDS011;15918;51.270;6.522;2022-12-13T00:09:35;32.70;;;27.65;;
28762;SDS011;15918;51.270;6.522;2022-12-13T00:12:00;32.47;;;27.90;;
28762;SDS011;15918;51.270;6.522;2022-12-13T00:14:26;34.03;;;29.38;;
28762;SDS011;15918;51.270;6.522;2022-12-13T00:16:51;33.03;;;27.25;;
28762;SDS011;15918;51.270;6.522;2022-12-13T00:19:17;40.05;;;28.90;;
28762;SDS011;15918;51.270;6.522;2022-12-13T00:21:43;35.22;;;28.52;;
28762;SDS011;15918;51.270;6.522;2022-12-13T00:24:09;32.92;;;28.02;;
28762;SDS011;15918;51.270;6.522;2022-12-13T00:26:35;36.33;;;29.02;;
28762;SDS011;15918;51.270;6.522;2022-12-13T00:29:01;32.00;;;27.70;;
28762;SDS011;15918;51.270;6.522;2022-12-13T00:31:28;35.75;;;29.15;;
28762;SDS011;15918;51.270;6.522;2022-12-13T00:34:00;32.85;;;26.80;;
28762;SDS011;15918;51.270;6.522;2022-12-13T00:36:25;32.00;;;27.23;;
28762;SDS011;15918;51.270;6.522;2022-12-13T00:38:51;34.42;;;28.15;;
28762;SDS011;15918;51.270;6.522;2022-12-13T00:41:24;31.33;;;26.52;;
28762;SDS011;15918;51.270;6.522;2022-12-13T00:43:51;29.65;;;26.45;;
28762;SDS011;15918;51.270;6.522;2022-12-13T00:46:18;32.67;;;27.63;;
28762;SDS011;15918;51.270;6.522;2022-12-13T00:48:50;33.75;;;27.80;;
28762;SDS011;15918;51.270;6.522;2022-12-13T00:51:17;35.33;;;27.27;;
28762;SDS011;15918;51.270;6.522;2022-12-13T00:53:43;33.15;;;26.90;;
28762;SDS011;15918;51.270;6.522;2022-12-13T00:56:13;33.47;;;27.00;;
28762;SDS011;15918;51.270;6.522;2022-12-13T00:58:40;31.80;;;26.92;;
28762;SDS011;15918;51.270;6.522;2022-12-13T01:01:08;31.92;;;27.23;;
28762;SDS011;15918;51.270;6.522;2022-12-13T01:03:36;33.15;;;26.80;;
28762;SDS011;15918;51.270;6.522;2022-12-13T01:06:22;33.10;;;25.77;;
28762;SDS011;15918;51.270;6.522;2022-12-13T01:08:51;30.95;;;26.95;;
28762;SDS011;15918;51.270;6.522;2022-12-13T01:11:17;34.55;;;26.33;;
28762;SDS011;15918;51.270;6.522;2022-12-13T01:13:43;33.42;;;28.20;;
28762;SDS011;15918;51.270;6.522;2022-12-13T01:16:09;32.85;;;27.60;;
28762;SDS011;15918;51.270;6.522;2022-12-13T01:18:35;34.60;;;28.02;;
28762;SDS011;15918;51.270;6.522;2022-12-13T01:21:03;33.00;;;27.65;;
28762;SDS011;15918;51.270;6.522;2022-12-13T01:23:30;32.30;;;28.02;;
28762;SDS011;15918;51.270;6.522;2022-12-13T01:25:56;36.13;;;27.52;;
28762;SDS011;15918;51.270;6.522;2022-12-13T01:28:22;33.83;;;27.85;;
28762;SDS011;15918;51.270;6.522;2022-12-13T01:30:55;31.70;;;27.38;;
28762;SDS011;15918;51.270;6.522;2022-12-13T01:33:21;35.30;;;28.25;;
28762;SDS011;15918;51.270;6.522;2022-12-13T01:35:47;34.03;;;28.48;;
28762;SDS011;15918;51.270;6.522;2022-12-13T01:38:13;34.55;;;28.73;;
28762;SDS011;15918;51.270;6.522;2022-12-13T01:40:48;34.47;;;29.17;;
28762;SDS011;15918;51.270;6.522;2022-12-13T01:43:22;35.72;;;28.42;;
28762;SDS011;15918;51.270;6.522;2022-12-13T01:45:53;35.88;;;28.60;;
28762;SDS011;15918;51.270;6.522;2022-12-13T01:48:20;34.33;;;29.38;;
28762;SDS011;15918;51.270;6.522;2022-12-13T01:50:52;35.80;;;28.80;;
28762;SDS011;15918;51.270;6.522;2022-12-13T01:53:26;35.22;;;28.58;;
28762;SDS011;15918;51.270;6.522;2022-12-13T01:55:55;32.70;;;28.42;;
28762;SDS011;15918;51.270;6.522;2022-12-13T01:58:26;32.55;;;28.30;;
28762;SDS011;15918;51.270;6.522;2022-12-13T02:00:52;32.72;;;27.77;;
28762;SDS011;15918;51.270;6.522;2022-12-13T02:03:17;36.50;;;28.33;;
28762;SDS011;15918;51.270;6.522;2022-12-13T02:05:51;36.20;;;29.35;;
28762;SDS011;15918;51.270;6.522;2022-12-13T02:08:24;33.58;;;28.60;;
28762;SDS011;15918;51.270;6.522;2022-12-13T02:10:50;33.83;;;27.17;;
28762;SDS011;15918;51.270;6.522;2022-12-13T02:13:16;33.67;;;28.02;;
28762;SDS011;15918;51.270;6.522;2022-12-13T02:15:43;32.03;;;26.65;;
28762;SDS011;15918;51.270;6.522;2022-12-13T02:18:40;33.78;;;28.65;;
28762;SDS011;15918;51.270;6.522;2022-12-13T02:21:47;31.00;;;26.58;;
28762;SDS011;15918;51.270;6.522;2022-12-13T02:27:31;41.15;;;30.15;;
28762;SDS011;15918;51.270;6.522;2022-12-13T02:38:12;35.15;;;29.55;;
28762;SDS011;15918;51.270;6.522;2022-12-13T02:40:44;32.72;;;27.58;;
28762;SDS011;15918;51.270;6.522;2022-12-13T02:43:18;37.28;;;28.70;;
28762;SDS011;15918;51.270;6.522;2022-12-13T02:45:48;36.05;;;28.60;;
28762;SDS011;15918;51.270;6.522;2022-12-13T02:48:17;34.85;;;28.20;;
28762;SDS011;15918;51.270;6.522;2022-12-13T02:50:47;35.92;;;30.05;;
28762;SDS011;15918;51.270;6.522;2022-12-13T02:53:15;34.70;;;29.42;;
28762;SDS011;15918;51.270;6.522;2022-12-13T02:55:43;38.78;;;31.45;;
28762;SDS011;15918;51.270;6.522;2022-12-13T02:58:11;38.28;;;30.50;;
28762;SDS011;15918;51.270;6.522;2022-12-13T03:00:52;34.58;;;29.45;;
28762;SDS011;15918;51.270;6.522;2022-12-13T03:03:41;38.95;;;30.98;;
28762;SDS011;15918;51.270;6.522;2022-12-13T03:09:07;36.45;;;31.17;;
28762;SDS011;15918;51.270;6.522;2022-12-13T03:18:06;38.55;;;31.70;;
28762;SDS011;15918;51.270;6.522;2022-12-13T03:20:48;37.83;;;30.65;;
28762;SDS011;15918;51.270;6.522;2022-12-13T03:23:23;38.25;;;30.80;;
28762;SDS011;15918;51.270;6.522;2022-12-13T03:25:53;38.72;;;31.40;;
28762;SDS011;15918;51.270;6.522;2022-12-13T03:28:20;39.42;;;32.10;;
28762;SDS011;15918;51.270;6.522;2022-12-13T03:30:46;39.22;;;33.10;;
28762;SDS011;15918;51.270;6.522;2022-12-13T03:33:11;39.72;;;32.47;;
28762;SDS011;15918;51.270;6.522;2022-12-13T03:35:38;40.72;;;33.22;;
28762;SDS011;15918;51.270;6.522;2022-12-13T03:38:05;39.83;;;31.85;;
28762;SDS011;15918;51.270;6.522;2022-12-13T03:40:31;40.45;;;34.47;;
28762;SDS011;15918;51.270;6.522;2022-12-13T03:42:58;39.88;;;32.70;;
28762;SDS011;15918;51.270;6.522;2022-12-13T03:45:24;43.58;;;33.67;;
28762;SDS011;15918;51.270;6.522;2022-12-13T03:47:49;43.72;;;33.42;;
28762;SDS011;15918;51.270;6.522;2022-12-13T03:50:15;41.10;;;32.60;;
28762;SDS011;15918;51.270;6.522;2022-12-13T03:52:41;40.03;;;32.55;;
28762;SDS011;15918;51.270;6.522;2022-12-13T03:55:07;41.08;;;33.20;;
28762;SDS011;15918;51.270;6.522;2022-12-13T03:57:32;41.65;;;33.83;;
28762;SDS011;15918;51.270;6.522;2022-12-13T03:59:58;39.85;;;33.13;;
28762;SDS011;15918;51.270;6.522;2022-12-13T04:02:23;42.10;;;34.60;;
28762;SDS011;15918;51.270;6.522;2022-12-13T04:04:49;39.90;;;32.20;;
28762;SDS011;15918;51.270;6.522;2022-12-13T04:07:15;40.00;;;32.13;;
28762;SDS011;15918;51.270;6.522;2022-12-13T04:09:40;38.88;;;33.10;;
28762;SDS011;15918;51.270;6.522;2022-12-13T04:12:06;43.10;;;33.88;;
28762;SDS011;15918;51.270;6.522;2022-12-13T04:15:03;38.97;;;33.45;;
28762;SDS011;15918;51.270;6.522;2022-12-13T04:17:29;41.92;;;34.38;;
28762;SDS011;15918;51.270;6.522;2022-12-13T04:19:55;39.50;;;33.03;;
28762;SDS011;15918;51.270;6.522;2022-12-13T04:22:20;39.63;;;33.22;;
28762;SDS011;15918;51.270;6.522;2022-12-13T04:24:46;40.42;;;32.95;;
28762;SDS011;15918;51.270;6.522;2022-12-13T04:27:11;42.38;;;33.55;;
28762;SDS011;15918;51.270;6.522;2022-12-13T04:29:37;44.90;;;35.10;;
28762;SDS011;15918;51.270;6.522;2022-12-13T04:32:03;39.42;;;32.55;;
28762;SDS011;15918;51.270;6.522;2022-12-13T04:34:28;40.10;;;32.33;;
28762;SDS011;15918;51.270;6.522;2022-12-13T04:36:54;41.53;;;33.65;;
28762;SDS011;15918;51.270;6.522;2022-12-13T04:39:19;38.05;;;30.92;;
28762;SDS011;15918;51.270;6.522;2022-12-13T04:41:45;37.75;;;33.15;;
28762;SDS011;15918;51.270;6.522;2022-12-13T04:44:11;40.00;;;33.28;;
28762;SDS011;15918;51.270;6.522;2022-12-13T04:46:36;42.30;;;33.72;;
28762;SDS011;15918;51.270;6.522;2022-12-13T04:49:02;38.42;;;33.05;;
28762;SDS011;15918;51.270;6.522;2022-12-13T04:51:27;40.13;;;33.00;;
28762;SDS011;15918;51.270;6.522;2022-12-13T04:53:53;39.13;;;31.73;;
28762;SDS011;15918;51.270;6.522;2022-12-13T04:56:19;44.90;;;34.63;;
28762;SDS011;15918;51.270;6.522;2022-12-13T04:58:44;39.22;;;31.60;;
28762;SDS011;15918;51.270;6.522;2022-12-13T05:01:10;35.17;;;31.17;;
28762;SDS011;15918;51.270;6.522;2022-12-13T05:03:36;42.00;;;33.92;;
28762;SDS011;15918;51.270;6.522;2022-12-13T05:06:03;38.83;;;31.67;;
28762;SDS011;15918;51.270;6.522;2022-12-13T05:08:30;38.67;;;31.10;;
28762;SDS011;15918;51.270;6.522;2022-12-13T05:10:55;38.88;;;31.98;;
28762;SDS011;15918;51.270;6.522;2022-12-13T05:13:21;39.72;;;31.73;;
28762;SDS011;15918;51.270;6.522;2022-12-13T05:15:52;39.90;;;32.10;;
28762;SDS011;15918;51.270;6.522;2022-12-13T05:18:29;39.10;;;33.53;;
28762;SDS011;15918;51.270;6.522;2022-12-13T05:20:54;37.78;;;31.83;;
28762;SDS011;15918;51.270;6.522;2022-12-13T05:23:22;40.90;;;33.15;;
28762;SDS011;15918;51.270;6.522;2022-12-13T05:25:51;39.80;;;32.10;;
28762;SDS011;15918;51.270;6.522;2022-12-13T05:28:17;37.72;;;31.92;;
28762;SDS011;15918;51.270;6.522;2022-12-13T05:30:42;37.80;;;31.75;;
28762;SDS011;15918;51.270;6.522;2022-12-13T05:33:08;39.78;;;33.22;;
28762;SDS011;15918;51.270;6.522;2022-12-13T05:35:34;42.05;;;32.35;;
28762;SDS011;15918;51.270;6.522;2022-12-13T05:38:00;42.22;;;32.95;;
28762;SDS011;15918;51.270;6.522;2022-12-13T05:40:27;41.22;;;33.30;;
28762;SDS011;15918;51.270;6.522;2022-12-13T05:42:55;42.30;;;33.13;;
28762;SDS011;15918;51.270;6.522;2022-12-13T05:45:21;44.03;;;34.25;;
28762;SDS011;15918;51.270;6.522;2022-12-13T05:47:47;42.17;;;33.63;;
28762;SDS011;15918;51.270;6.522;2022-12-13T05:50:13;43.47;;;35.35;;
28762;SDS011;15918;51.270;6.522;2022-12-13T05:52:41;40.08;;;32.85;;
28762;SDS011;15918;51.270;6.522;2022-12-13T05:55:07;41.72;;;33.97;;
28762;SDS011;15918;51.270;6.522;2022-12-13T05:57:33;42.65;;;34.13;;
28762;SDS011;15918;51.270;6.522;2022-12-13T05:59:58;41.13;;;34.13;;
28762;SDS011;15918;51.270;6.522;2022-12-13T06:02:24;46.47;;;35.15;;
28762;SDS011;15918;51.270;6.522;2022-12-13T06:04:49;42.05;;;33.75;;
28762;SDS011;15918;51.270;6.522;2022-12-13T06:07:15;46.42;;;35.58;;
28762;SDS011;15918;51.270;6.522;2022-12-13T06:09:41;43.67;;;34.85;;
28762;SDS011;15918;51.270;6.522;2022-12-13T06:12:06;42.20;;;34.67;;
28762;SDS011;15918;51.270;6.522;2022-12-13T06:14:34;41.80;;;34.72;;
28762;SDS011;15918;51.270;6.522;2022-12-13T06:16:59;40.78;;;33.17;;
28762;SDS011;15918;51.270;6.522;2022-12-13T06:19:25;43.55;;;35.88;;
28762;SDS011;15918;51.270;6.522;2022-12-13T06:21:52;40.08;;;32.60;;
28762;SDS011;15918;51.270;6.522;2022-12-13T06:24:19;39.10;;;32.20;;
28762;SDS011;15918;51.270;6.522;2022-12-13T06:26:46;43.85;;;35.05;;
28762;SDS011;15918;51.270;6.522;2022-12-13T06:29:13;42.05;;;33.85;;
28762;SDS011;15918;51.270;6.522;2022-12-13T06:31:40;40.65;;;33.00;;
28762;SDS011;15918;51.270;6.522;2022-12-13T06:34:05;41.50;;;33.40;;
28762;SDS011;15918;51.270;6.522;2022-12-13T06:36:31;43.13;;;33.65;;
28762;SDS011;15918;51.270;6.522;2022-12-13T06:39:00;42.15;;;32.20;;
28762;SDS011;15918;51.270;6.522;2022-12-13T06:41:26;45.55;;;33.83;;
28762;SDS011;15918;51.270;6.522;2022-12-13T06:43:53;40.45;;;33.60;;
28762;SDS011;15918;51.270;6.522;2022-12-13T06:46:18;43.17;;;33.45;;
28762;SDS011;15918;51.270;6.522;2022-12-13T06:48:44;43.65;;;35.28;;
28762;SDS011;15918;51.270;6.522;2022-12-13T06:51:10;42.10;;;34.55;;
28762;SDS011;15918;51.270;6.522;2022-12-13T06:53:36;42.42;;;34.65;;
28762;SDS011;15918;51.270;6.522;2022-12-13T06:56:04;43.35;;;34.80;;
28762;SDS011;15918;51.270;6.522;2022-12-13T06:58:31;42.40;;;33.75;;
28762;SDS011;15918;51.270;6.522;2022-12-13T07:01:11;41.15;;;33.92;;
28762;SDS011;15918;51.270;6.522;2022-12-13T07:03:42;43.75;;;35.03;;
28762;SDS011;15918;51.270;6.522;2022-12-13T07:06:11;48.83;;;36.55;;
28762;SDS011;15918;51.270;6.522;2022-12-13T07:08:39;44.88;;;37.40;;
28762;SDS011;15918;51.270;6.522;2022-12-13T07:11:05;45.67;;;37.80;;
28762;SDS011;15918;51.270;6.522;2022-12-13T07:13:31;45.50;;;37.05;;
28762;SDS011;15918;51.270;6.522;2022-12-13T07:15:58;46.65;;;35.72;;
28762;SDS011;15918;51.270;6.522;2022-12-13T07:18:24;44.92;;;36.35;;
28762;SDS011;15918;51.270;6.522;2022-12-13T07:20:50;43.95;;;36.80;;
28762;SDS011;15918;51.270;6.522;2022-12-13T07:23:16;48.13;;;38.50;;
28762;SDS011;15918;51.270;6.522;2022-12-13T07:25:42;42.85;;;36.70;;
28762;SDS011;15918;51.270;6.522;2022-12-13T07:28:16;46.08;;;36.63;;
28762;SDS011;15918;51.270;6.522;2022-12-13T07:30:41;44.35;;;36.58;;
28762;SDS011;15918;51.270;6.522;2022-12-13T07:33:07;39.97;;;34.38;;
28762;SDS011;15918;51.270;6.522;2022-12-13T07:35:33;44.53;;;35.50;;
28762;SDS011;15918;51.270;6.522;2022-12-13T07:37:59;43.20;;;33.90;;
28762;SDS011;15918;51.270;6.522;2022-12-13T07:40:24;44.15;;;35.13;;
28762;SDS011;15918;51.270;6.522;2022-12-13T07:42:50;43.88;;;35.50;;
28762;SDS011;15918;51.270;6.522;2022-12-13T07:45:17;43.45;;;35.40;;
28762;SDS011;15918;51.270;6.522;2022-12-13T07:47:43;42.58;;;35.47;;
28762;SDS011;15918;51.270;6.522;2022-12-13T07:50:09;44.85;;;35.67;;
28762;SDS011;15918;51.270;6.522;2022-12-13T07:52:35;43.63;;;35.58;;
28762;SDS011;15918;51.270;6.522;2022-12-13T07:55:01;45.35;;;34.50;;
28762;SDS011;15918;51.270;6.522;2022-12-13T07:57:26;44.13;;;35.60;;
28762;SDS011;15918;51.270;6.522;2022-12-13T07:59:52;44.35;;;35.50;;
28762;SDS011;15918;51.270;6.522;2022-12-13T08:02:18;45.25;;;35.65;;
28762;SDS011;15918;51.270;6.522;2022-12-13T08:04:43;45.95;;;35.00;;
28762;SDS011;15918;51.270;6.522;2022-12-13T08:07:09;46.60;;;36.25;;
28762;SDS011;15918;51.270;6.522;2022-12-13T08:09:35;46.63;;;37.17;;
28762;SDS011;15918;51.270;6.522;2022-12-13T08:12:01;46.58;;;36.05;;
28762;SDS011;15918;51.270;6.522;2022-12-13T08:14:26;45.72;;;37.22;;
28762;SDS011;15918;51.270;6.522;2022-12-13T08:16:52;44.70;;;36.72;;
28762;SDS011;15918;51.270;6.522;2022-12-13T08:19:17;44.35;;;36.15;;
28762;SDS011;15918;51.270;6.522;2022-12-13T08:21:43;44.15;;;35.72;;
28762;SDS011;15918;51.270;6.522;2022-12-13T08:24:09;43.58;;;34.75;;
28762;SDS011;15918;51.270;6.522;2022-12-13T08:26:34;40.33;;;33.40;;
28762;SDS011;15918;51.270;6.522;2022-12-13T08:29:00;40.50;;;34.40;;
28762;SDS011;15918;51.270;6.522;2022-12-13T08:31:27;42.13;;;35.42;;
28762;SDS011;15918;51.270;6.522;2022-12-13T08:33:52;41.88;;;33.75;;
28762;SDS011;15918;51.270;6.522;2022-12-13T08:36:18;42.22;;;33.70;;
28762;SDS011;15918;51.270;6.522;2022-12-13T08:38:46;41.22;;;34.15;;
28762;SDS011;15918;51.270;6.522;2022-12-13T08:41:12;46.78;;;35.38;;
28762;SDS011;15918;51.270;6.522;2022-12-13T08:43:38;47.72;;;36.33;;
28762;SDS011;15918;51.270;6.522;2022-12-13T08:46:04;39.28;;;32.67;;
28762;SDS011;15918;51.270;6.522;2022-12-13T08:48:30;40.67;;;32.92;;
28762;SDS011;15918;51.270;6.522;2022-12-13T08:51:02;41.63;;;34.28;;
28762;SDS011;15918;51.270;6.522;2022-12-13T08:53:31;46.63;;;35.77;;
28762;SDS011;15918;51.270;6.522;2022-12-13T08:56:00;41.47;;;33.45;;
28762;SDS011;15918;51.270;6.522;2022-12-13T08:58:27;43.13;;;34.75;;
28762;SDS011;15918;51.270;6.522;2022-12-13T09:00:53;42.85;;;35.05;;
28762;SDS011;15918;51.270;6.522;2022-12-13T09:03:19;49.20;;;36.95;;
28762;SDS011;15918;51.270;6.522;2022-12-13T09:05:44;46.08;;;35.50;;
28762;SDS011;15918;51.270;6.522;2022-12-13T09:08:10;44.58;;;33.58;;
28762;SDS011;15918;51.270;6.522;2022-12-13T09:10:36;40.60;;;34.53;;
28762;SDS011;15918;51.270;6.522;2022-12-13T09:13:01;40.53;;;33.17;;
28762;SDS011;15918;51.270;6.522;2022-12-13T09:15:28;44.08;;;35.47;;
28762;SDS011;15918;51.270;6.522;2022-12-13T09:17:54;41.92;;;34.22;;
28762;SDS011;15918;51.270;6.522;2022-12-13T09:20:20;44.63;;;35.33;;
28762;SDS011;15918;51.270;6.522;2022-12-13T09:22:45;44.40;;;34.50;;
28762;SDS011;15918;51.270;6.522;2022-12-13T09:25:11;43.83;;;34.45;;
28762;SDS011;15918;51.270;6.522;2022-12-13T09:27:37;41.38;;;33.88;;
28762;SDS011;15918;51.270;6.522;2022-12-13T09:30:02;42.47;;;34.72;;
28762;SDS011;15918;51.270;6.522;2022-12-13T09:32:30;40.80;;;33.55;;
28762;SDS011;15918;51.270;6.522;2022-12-13T09:34:55;39.15;;;33.03;;
28762;SDS011;15918;51.270;6.522;2022-12-13T09:37:21;40.00;;;32.70;;
28762;SDS011;15918;51.270;6.522;2022-12-13T09:39:46;45.70;;;34.90;;
28762;SDS011;15918;51.270;6.522;2022-12-13T09:42:22;39.90;;;32.38;;
28762;SDS011;15918;51.270;6.522;2022-12-13T09:44:51;40.30;;;32.60;;
28762;SDS011;15918;51.270;6.522;2022-12-13T09:47:35;41.65;;;33.28;;
28762;SDS011;15918;51.270;6.522;2022-12-13T09:50:07;38.75;;;32.17;;
28762;SDS011;15918;51.270;6.522;2022-12-13T09:52:39;37.25;;;31.00;;
28762;SDS011;15918;51.270;6.522;2022-12-13T09:57:44;41.78;;;31.25;;
28762;SDS011;15918;51.270;6.522;2022-12-13T10:00:12;38.90;;;32.10;;
28762;SDS011;15918;51.270;6.522;2022-12-13T10:02:44;36.75;;;30.25;;
28762;SDS011;15918;51.270;6.522;2022-12-13T10:05:19;38.35;;;31.48;;
28762;SDS011;15918;51.270;6.522;2022-12-13T10:07:59;36.72;;;30.98;;
28762;SDS011;15918;51.270;6.522;2022-12-13T10:10:39;39.53;;;31.38;;
28762;SDS011;15918;51.270;6.522;2022-12-13T10:13:11;34.78;;;29.88;;
28762;SDS011;15918;51.270;6.522;2022-12-13T10:16:01;37.70;;;29.67;;
28762;SDS011;15918;51.270;6.522;2022-12-13T10:18:35;40.00;;;32.78;;
28762;SDS011;15918;51.270;6.522;2022-12-13T10:21:02;35.63;;;29.73;;
28762;SDS011;15918;51.270;6.522;2022-12-13T10:23:33;36.80;;;30.33;;
28762;SDS011;15918;51.270;6.522;2022-12-13T10:25:59;39.60;;;30.55;;
28762;SDS011;15918;51.270;6.522;2022-12-13T10:28:26;37.60;;;30.15;;
28762;SDS011;15918;51.270;6.522;2022-12-13T10:30:55;35.80;;;31.30;;
28762;SDS011;15918;51.270;6.522;2022-12-13T10:36:03;36.92;;;29.63;;
28762;SDS011;15918;51.270;6.522;2022-12-13T10:38:38;37.33;;;30.00;;
28762;SDS011;15918;51.270;6.522;2022-12-13T10:44:06;40.33;;;30.75;;
28762;SDS011;15918;51.270;6.522;2022-12-13T10:46:47;35.38;;;29.70;;
28762;SDS011;15918;51.270;6.522;2022-12-13T10:49:19;37.60;;;29.83;;
28762;SDS011;15918;51.270;6.522;2022-12-13T10:51:50;35.55;;;29.80;;
28762;SDS011;15918;51.270;6.522;2022-12-13T10:54:36;36.58;;;30.00;;
28762;SDS011;15918;51.270;6.522;2022-12-13T10:57:02;38.63;;;30.73;;
28762;SDS011;15918;51.270;6.522;2022-12-13T10:59:32;39.08;;;31.23;;
28762;SDS011;15918;51.270;6.522;2022-12-13T11:04:52;37.22;;;29.52;;
28762;SDS011;15918;51.270;6.522;2022-12-13T11:09:48;36.83;;;29.38;;
28762;SDS011;15918;51.270;6.522;2022-12-13T11:12:15;35.25;;;28.40;;
28762;SDS011;15918;51.270;6.522;2022-12-13T11:14:49;35.60;;;28.85;;
28762;SDS011;15918;51.270;6.522;2022-12-13T11:17:29;40.85;;;30.63;;
28762;SDS011;15918;51.270;6.522;2022-12-13T11:20:05;36.65;;;29.80;;
28762;SDS011;15918;51.270;6.522;2022-12-13T11:22:39;37.38;;;29.77;;
28762;SDS011;15918;51.270;6.522;2022-12-13T11:25:16;40.05;;;29.95;;
28762;SDS011;15918;51.270;6.522;2022-12-13T11:27:56;39.92;;;29.52;;
28762;SDS011;15918;51.270;6.522;2022-12-13T11:41:56;36.08;;;27.92;;
28762;SDS011;15918;51.270;6.522;2022-12-13T11:47:12;36.50;;;28.95;;
28762;SDS011;15918;51.270;6.522;2022-12-13T11:49:42;38.03;;;28.80;;
28762;SDS011;15918;51.270;6.522;2022-12-13T11:52:17;33.33;;;27.20;;
28762;SDS011;15918;51.270;6.522;2022-12-13T11:54:59;35.17;;;28.83;;
28762;SDS011;15918;51.270;6.522;2022-12-13T11:57:38;34.65;;;28.33;;
28762;SDS011;15918;51.270;6.522;2022-12-13T12:03:27;33.35;;;27.45;;
28762;SDS011;15918;51.270;6.522;2022-12-13T12:06:22;35.00;;;27.10;;
28762;SDS011;15918;51.270;6.522;2022-12-13T12:08:58;31.98;;;25.65;;
28762;SDS011;15918;51.270;6.522;2022-12-13T12:11:27;33.38;;;25.58;;
28762;SDS011;15918;51.270;6.522;2022-12-13T12:19:19;32.70;;;25.15;;
28762;SDS011;15918;51.270;6.522;2022-12-13T12:27:48;32.10;;;24.80;;
28762;SDS011;15918;51.270;6.522;2022-12-13T12:35:57;31.38;;;23.92;;
28762;SDS011;15918;51.270;6.522;2022-12-13T12:38:49;31.17;;;25.15;;
28762;SDS011;15918;51.270;6.522;2022-12-13T12:41:42;31.45;;;24.50;;
28762;SDS011;15918;51.270;6.522;2022-12-13T12:47:09;34.38;;;25.23;;
28762;SDS011;15918;51.270;6.522;2022-12-13T12:52:31;32.90;;;25.35;;
28762;SDS011;15918;51.270;6.522;2022-12-13T13:00:19;30.55;;;24.80;;
28762;SDS011;15918;51.270;6.522;2022-12-13T13:05:39;29.67;;;23.58;;
28762;SDS011;15918;51.270;6.522;2022-12-13T13:10:50;32.00;;;23.92;;
28762;SDS011;15918;51.270;6.522;2022-12-13T13:13:33;33.28;;;25.42;;
28762;SDS011;15918;51.270;6.522;2022-12-13T13:16:54;31.40;;;24.15;;
28762;SDS011;15918;51.270;6.522;2022-12-13T13:19:03;30.35;;;24.17;;
28762;SDS011;15918;51.270;6.522;2022-12-13T13:24:26;33.60;;;24.80;;
28762;SDS011;15918;51.270;6.522;2022-12-13T13:26:54;32.40;;;24.83;;
28762;SDS011;15918;51.270;6.522;2022-12-13T13:29:43;33.13;;;26.58;;
28762;SDS011;15918;51.270;6.522;2022-12-13T13:34:36;35.13;;;27.00;;
28762;SDS011;15918;51.270;6.522;2022-12-13T13:45:22;32.45;;;25.48;;
28762;SDS011;15918;51.270;6.522;2022-12-13T13:56:10;31.77;;;24.38;;
28762;SDS011;15918;51.270;6.522;2022-12-13T14:01:58;31.95;;;22.33;;
28762;SDS011;15918;51.270;6.522;2022-12-13T14:12:51;28.77;;;20.42;;
28762;SDS011;15918;51.270;6.522;2022-12-13T14:19:17;24.02;;;21.23;;
28762;SDS011;15918;51.270;6.522;2022-12-13T14:24:46;27.90;;;20.92;;
28762;SDS011;15918;51.270;6.522;2022-12-13T14:27:47;30.38;;;21.95;;
28762;SDS011;15918;51.270;6.522;2022-12-13T14:30:32;27.65;;;20.33;;
28762;SDS011;15918;51.270;6.522;2022-12-13T14:33:03;26.80;;;20.23;;
28762;SDS011;15918;51.270;6.522;2022-12-13T14:35:30;25.25;;;20.73;;
28762;SDS011;15918;51.270;6.522;2022-12-13T14:38:00;30.92;;;20.88;;
28762;SDS011;15918;51.270;6.522;2022-12-13T14:40:29;26.15;;;20.45;;
28762;SDS011;15918;51.270;6.522;2022-12-13T14:42:59;27.15;;;20.00;;
28762;SDS011;15918;51.270;6.522;2022-12-13T14:47:52;29.48;;;20.85;;
28762;SDS011;15918;51.270;6.522;2022-12-13T14:50:18;24.40;;;19.30;;
28762;SDS011;15918;51.270;6.522;2022-12-13T14:52:46;27.02;;;20.17;;
28762;SDS011;15918;51.270;6.522;2022-12-13T14:55:27;23.45;;;20.05;;
28762;SDS011;15918;51.270;6.522;2022-12-13T14:57:58;30.20;;;19.88;;
28762;SDS011;15918;51.270;6.522;2022-12-13T15:02:57;32.90;;;20.15;;
28762;SDS011;15918;51.270;6.522;2022-12-13T15:05:27;24.90;;;20.15;;
28762;SDS011;15918;51.270;6.522;2022-12-13T15:07:55;25.67;;;19.67;;
28762;SDS011;15918;51.270;6.522;2022-12-13T15:10:41;25.27;;;20.55;;
28762;SDS011;15918;51.270;6.522;2022-12-13T15:13:22;24.50;;;19.80;;
28762;SDS011;15918;51.270;6.522;2022-12-13T15:16:02;26.10;;;20.73;;
28762;SDS011;15918;51.270;6.522;2022-12-13T15:18:34;25.70;;;20.77;;
28762;SDS011;15918;51.270;6.522;2022-12-13T15:21:00;27.30;;;20.27;;
28762;SDS011;15918;51.270;6.522;2022-12-13T15:23:36;26.40;;;20.65;;
28762;SDS011;15918;51.270;6.522;2022-12-13T15:28:37;25.05;;;19.80;;
28762;SDS011;15918;51.270;6.522;2022-12-13T15:31:05;23.98;;;19.73;;
28762;SDS011;15918;51.270;6.522;2022-12-13T15:33:32;25.67;;;20.17;;
28762;SDS011;15918;51.270;6.522;2022-12-13T15:36:06;23.00;;;18.40;;
28762;SDS011;15918;51.270;6.522;2022-12-13T15:38:35;24.40;;;19.60;;
28762;SDS011;15918;51.270;6.522;2022-12-13T15:41:04;23.92;;;18.88;;
28762;SDS011;15918;51.270;6.522;2022-12-13T15:43:41;24.42;;;19.42;;
28762;SDS011;15918;51.270;6.522;2022-12-13T15:46:10;23.05;;;18.25;;
28762;SDS011;15918;51.270;6.522;2022-12-13T15:48:37;23.25;;;18.00;;
28762;SDS011;15918;51.270;6.522;2022-12-13T15:51:07;23.67;;;18.85;;
28762;SDS011;15918;51.270;6.522;2022-12-13T15:53:34;27.25;;;19.70;;
28762;SDS011;15918;51.270;6.522;2022-12-13T15:56:01;24.00;;;19.58;;
28762;SDS011;15918;51.270;6.522;2022-12-13T15:58:51;26.43;;;21.10;;
28762;SDS011;15918;51.270;6.522;2022-12-13T16:01:30;28.00;;;20.45;;
28762;SDS011;15918;51.270;6.522;2022-12-13T16:04:01;27.77;;;21.67;;
28762;SDS011;15918;51.270;6.522;2022-12-13T16:06:29;28.48;;;21.38;;
28762;SDS011;15918;51.270;6.522;2022-12-13T16:08:57;29.17;;;21.58;;
28762;SDS011;15918;51.270;6.522;2022-12-13T16:11:27;25.98;;;20.77;;
28762;SDS011;15918;51.270;6.522;2022-12-13T16:17:21;25.73;;;21.08;;
28762;SDS011;15918;51.270;6.522;2022-12-13T16:19:52;25.88;;;21.90;;
28762;SDS011;15918;51.270;6.522;2022-12-13T16:22:19;26.55;;;21.50;;
28762;SDS011;15918;51.270;6.522;2022-12-13T16:24:47;30.48;;;23.08;;
28762;SDS011;15918;51.270;6.522;2022-12-13T16:27:13;31.15;;;22.08;;
28762;SDS011;15918;51.270;6.522;2022-12-13T16:29:39;29.63;;;23.13;;
28762;SDS011;15918;51.270;6.522;2022-12-13T16:32:05;35.05;;;23.70;;
28762;SDS011;15918;51.270;6.522;2022-12-13T16:34:30;35.13;;;24.55;;
28762;SDS011;15918;51.270;6.522;2022-12-13T16:36:56;31.70;;;23.42;;
28762;SDS011;15918;51.270;6.522;2022-12-13T16:39:23;31.70;;;23.25;;
28762;SDS011;15918;51.270;6.522;2022-12-13T16:41:50;29.95;;;23.42;;
28762;SDS011;15918;51.270;6.522;2022-12-13T16:44:21;30.88;;;23.10;;
28762;SDS011;15918;51.270;6.522;2022-12-13T16:46:53;27.27;;;21.48;;
28762;SDS011;15918;51.270;6.522;2022-12-13T16:49:26;30.90;;;22.73;;
28762;SDS011;15918;51.270;6.522;2022-12-13T16:51:53;30.60;;;23.05;;